sensor_id;sensor_type;location;lat;lon;timestamp;temperature;humidity
23405;DHT22;11875;49.356;2.718;2023-04-02T00:03:21;10.40;99.90
23405;DHT22;11875;49.356;2.718;2023-04-02T00:05:47;10.40;99.90
23405;DHT22;11875;49.356;2.718;2023-04-02T00:08:22;10.40;99.90
23405;DHT22;11875;49.356;2.718;2023-04-02T00:10:53;10.40;99.90
23405;DHT22;11875;49.356;2.718;2023-04-02T00:15:53;10.30;99.90
23405;DHT22;11875;49.356;2.718;2023-04-02T00:18:21;10.30;99.90
23405;DHT22;11875;49.356;2.718;2023-04-02T00:23:42;10.30;99.90
23405;DHT22;11875;49.356;2.718;2023-04-02T00:26:21;10.20;99.90
23405;DHT22;11875;49.356;2.718;2023-04-02T00:28:48;10.30;99.90
23405;DHT22;11875;49.356;2.718;2023-04-02T00:31:17;10.20;99.90
23405;DHT22;11875;49.356;2.718;2023-04-02T00:33:43;10.20;99.90
23405;DHT22;11875;49.356;2.718;2023-04-02T00:36:10;10.20;99.90
23405;DHT22;11875;49.356;2.718;2023-04-02T00:38:37;10.10;99.90
23405;DHT22;11875;49.356;2.718;2023-04-02T00:41:05;10.20;99.90
23405;DHT22;11875;49.356;2.718;2023-04-02T00:43:35;10.00;99.90
23405;DHT22;11875;49.356;2.718;2023-04-02T00:46:07;10.00;99.90
23405;DHT22;11875;49.356;2.718;2023-04-02T00:49:05;9.90;99.90
23405;DHT22;11875;49.356;2.718;2023-04-02T00:51:43;10.00;99.90
23405;DHT22;11875;49.356;2.718;2023-04-02T00:54:11;10.00;99.90
23405;DHT22;11875;49.356;2.718;2023-04-02T00:56:45;10.00;99.90
23405;DHT22;11875;49.356;2.718;2023-04-02T00:59:30;9.90;99.90
23405;DHT22;11875;49.356;2.718;2023-04-02T01:04:39;10.00;99.90
23405;DHT22;11875;49.356;2.718;2023-04-02T01:07:08;9.90;99.90
23405;DHT22;11875;49.356;2.718;2023-04-02T01:10:01;10.00;99.90
23405;DHT22;11875;49.356;2.718;2023-04-02T01:12:23;10.00;99.90
23405;DHT22;11875;49.356;2.718;2023-04-02T01:15:28;9.90;99.90
23405;DHT22;11875;49.356;2.718;2023-04-02T01:20:32;9.90;99.90
23405;DHT22;11875;49.356;2.718;2023-04-02T01:23:17;9.90;99.90
23405;DHT22;11875;49.356;2.718;2023-04-02T01:28:25;9.90;99.90
23405;DHT22;11875;49.356;2.718;2023-04-02T01:30:55;9.90;99.90
23405;DHT22;11875;49.356;2.718;2023-04-02T01:33:26;9.80;99.90
23405;DHT22;11875;49.356;2.718;2023-04-02T01:36:02;9.80;99.90
23405;DHT22;11875;49.356;2.718;2023-04-02T01:38:36;9.90;99.90
23405;DHT22;11875;49.356;2.718;2023-04-02T01:41:08;9.90;99.90
23405;DHT22;11875;49.356;2.718;2023-04-02T01:46:40;9.80;99.90
23405;DHT22;11875;49.356;2.718;2023-04-02T01:49:20;9.70;99.90
23405;DHT22;11875;49.356;2.718;2023-04-02T01:51:51;9.80;99.90
23405;DHT22;11875;49.356;2.718;2023-04-02T01:54:19;9.80;99.90
23405;DHT22;11875;49.356;2.718;2023-04-02T01:56:45;9.80;99.90
23405;DHT22;11875;49.356;2.718;2023-04-02T01:59:12;9.70;99.90
23405;DHT22;11875;49.356;2.718;2023-04-02T02:01:56;9.60;99.90
23405;DHT22;11875;49.356;2.718;2023-04-02T02:04:23;9.60;99.90
23405;DHT22;11875;49.356;2.718;2023-04-02T02:06:49;9.60;99.90
23405;DHT22;11875;49.356;2.718;2023-04-02T02:09:22;9.50;99.90
23405;DHT22;11875;49.356;2.718;2023-04-02T02:11:50;9.70;99.90
23405;DHT22;11875;49.356;2.718;2023-04-02T02:14:21;9.60;99.90
23405;DHT22;11875;49.356;2.718;2023-04-02T02:16:47;9.60;99.90
23405;DHT22;11875;49.356;2.718;2023-04-02T02:19:42;9.50;99.90
23405;DHT22;11875;49.356;2.718;2023-04-02T02:22:20;9.50;99.90
23405;DHT22;11875;49.356;2.718;2023-04-02T02:24:47;10.00;99.90
23405;DHT22;11875;49.356;2.718;2023-04-02T02:29:58;9.70;99.90
23405;DHT22;11875;49.356;2.718;2023-04-02T02:32:28;9.60;99.90
23405;DHT22;11875;49.356;2.718;2023-04-02T02:37:28;9.50;99.90
23405;DHT22;11875;49.356;2.718;2023-04-02T02:39:58;9.60;99.90
23405;DHT22;11875;49.356;2.718;2023-04-02T02:42:35;9.60;99.90
23405;DHT22;11875;49.356;2.718;2023-04-02T02:45:09;9.60;99.90
23405;DHT22;11875;49.356;2.718;2023-04-02T02:47:37;9.60;99.90
23405;DHT22;11875;49.356;2.718;2023-04-02T02:50:12;9.60;99.90
23405;DHT22;11875;49.356;2.718;2023-04-02T02:52:38;9.70;99.90
23405;DHT22;11875;49.356;2.718;2023-04-02T02:55:14;9.70;99.90
23405;DHT22;11875;49.356;2.718;2023-04-02T02:58:06;9.70;99.90
23405;DHT22;11875;49.356;2.718;2023-04-02T03:00:34;9.80;99.90
23405;DHT22;11875;49.356;2.718;2023-04-02T03:03:05;9.60;99.90
23405;DHT22;11875;49.356;2.718;2023-04-02T03:05:32;9.60;99.90
23405;DHT22;11875;49.356;2.718;2023-04-02T03:07:59;9.60;99.90
23405;DHT22;11875;49.356;2.718;2023-04-02T03:10:42;9.60;99.90
23405;DHT22;11875;49.356;2.718;2023-04-02T03:13:32;9.60;99.90
23405;DHT22;11875;49.356;2.718;2023-04-02T03:16:41;9.60;99.90
23405;DHT22;11875;49.356;2.718;2023-04-02T03:19:16;9.50;99.90
23405;DHT22;11875;49.356;2.718;2023-04-02T03:21:49;9.70;99.90
23405;DHT22;11875;49.356;2.718;2023-04-02T03:26:58;9.50;99.90
23405;DHT22;11875;49.356;2.718;2023-04-02T03:29:28;9.60;99.90
23405;DHT22;11875;49.356;2.718;2023-04-02T03:34:48;9.60;99.90
23405;DHT22;11875;49.356;2.718;2023-04-02T03:37:25;9.70;99.90
23405;DHT22;11875;49.356;2.718;2023-04-02T03:40:02;9.60;99.90
23405;DHT22;11875;49.356;2.718;2023-04-02T03:42:48;9.60;99.90
23405;DHT22;11875;49.356;2.718;2023-04-02T03:45:15;9.60;99.90
23405;DHT22;11875;49.356;2.718;2023-04-02T03:47:54;9.50;99.90
23405;DHT22;11875;49.356;2.718;2023-04-02T03:50:29;9.50;99.90
23405;DHT22;11875;49.356;2.718;2023-04-02T03:52:57;9.50;99.90
23405;DHT22;11875;49.356;2.718;2023-04-02T03:55:31;9.50;99.90
23405;DHT22;11875;49.356;2.718;2023-04-02T03:58:06;9.50;99.90
23405;DHT22;11875;49.356;2.718;2023-04-02T04:06:25;9.50;99.90
23405;DHT22;11875;49.356;2.718;2023-04-02T04:11:51;9.50;99.90
23405;DHT22;11875;49.356;2.718;2023-04-02T04:14:18;9.50;99.90
23405;DHT22;11875;49.356;2.718;2023-04-02T04:17:02;9.50;99.90
23405;DHT22;11875;49.356;2.718;2023-04-02T04:19:44;9.50;99.90
23405;DHT22;11875;49.356;2.718;2023-04-02T04:22:17;9.50;99.90
23405;DHT22;11875;49.356;2.718;2023-04-02T04:24:47;9.50;99.90
23405;DHT22;11875;49.356;2.718;2023-04-02T04:30:03;9.50;99.90
23405;DHT22;11875;49.356;2.718;2023-04-02T04:32:35;9.60;99.90
23405;DHT22;11875;49.356;2.718;2023-04-02T04:35:24;9.50;99.90
23405;DHT22;11875;49.356;2.718;2023-04-02T04:38:01;9.50;99.90
23405;DHT22;11875;49.356;2.718;2023-04-02T04:40:31;9.60;99.90
23405;DHT22;11875;49.356;2.718;2023-04-02T04:43:09;9.60;99.90
23405;DHT22;11875;49.356;2.718;2023-04-02T04:51:23;9.50;99.90
23405;DHT22;11875;49.356;2.718;2023-04-02T04:53:52;9.50;99.90
23405;DHT22;11875;49.356;2.718;2023-04-02T04:56:23;9.50;99.90
23405;DHT22;11875;49.356;2.718;2023-04-02T04:59:34;9.60;99.90
23405;DHT22;11875;49.356;2.718;2023-04-02T05:01:49;9.60;99.90
23405;DHT22;11875;49.356;2.718;2023-04-02T05:07:18;9.60;99.90
23405;DHT22;11875;49.356;2.718;2023-04-02T05:09:50;9.50;99.90
23405;DHT22;11875;49.356;2.718;2023-04-02T05:13:32;9.50;99.90
23405;DHT22;11875;49.356;2.718;2023-04-02T05:15:41;9.50;99.90
23405;DHT22;11875;49.356;2.718;2023-04-02T05:18:12;9.50;99.90
23405;DHT22;11875;49.356;2.718;2023-04-02T05:26:28;9.70;99.90
23405;DHT22;11875;49.356;2.718;2023-04-02T05:29:00;9.60;99.90
23405;DHT22;11875;49.356;2.718;2023-04-02T05:31:36;9.50;99.90
23405;DHT22;11875;49.356;2.718;2023-04-02T05:34:04;9.50;99.90
23405;DHT22;11875;49.356;2.718;2023-04-02T05:36:30;9.40;99.90
23405;DHT22;11875;49.356;2.718;2023-04-02T05:38:57;9.40;99.90
23405;DHT22;11875;49.356;2.718;2023-04-02T05:41:31;9.30;99.90
23405;DHT22;11875;49.356;2.718;2023-04-02T05:46:52;9.40;99.90
23405;DHT22;11875;49.356;2.718;2023-04-02T05:49:29;9.40;99.90
23405;DHT22;11875;49.356;2.718;2023-04-02T05:51:59;9.40;99.90
23405;DHT22;11875;49.356;2.718;2023-04-02T05:55:32;9.50;99.90
23405;DHT22;11875;49.356;2.718;2023-04-02T05:57:31;9.50;99.90
23405;DHT22;11875;49.356;2.718;2023-04-02T05:59:59;9.40;99.90
23405;DHT22;11875;49.356;2.718;2023-04-02T06:02:41;9.40;99.90
23405;DHT22;11875;49.356;2.718;2023-04-02T06:05:18;9.40;99.90
23405;DHT22;11875;49.356;2.718;2023-04-02T06:07:55;9.40;99.90
23405;DHT22;11875;49.356;2.718;2023-04-02T06:10:26;9.40;99.90
23405;DHT22;11875;49.356;2.718;2023-04-02T06:12:58;9.50;99.90
23405;DHT22;11875;49.356;2.718;2023-04-02T06:15:29;9.50;99.90
23405;DHT22;11875;49.356;2.718;2023-04-02T06:20:24;9.50;99.90
23405;DHT22;11875;49.356;2.718;2023-04-02T06:22:59;9.90;99.90
23405;DHT22;11875;49.356;2.718;2023-04-02T06:25:34;9.50;99.90
23405;DHT22;11875;49.356;2.718;2023-04-02T06:28:05;9.40;99.90
23405;DHT22;11875;49.356;2.718;2023-04-02T06:30:34;9.40;99.90
23405;DHT22;11875;49.356;2.718;2023-04-02T06:33:02;9.40;99.90
23405;DHT22;11875;49.356;2.718;2023-04-02T06:35:28;9.50;99.90
23405;DHT22;11875;49.356;2.718;2023-04-02T06:37:55;9.30;99.90
23405;DHT22;11875;49.356;2.718;2023-04-02T06:43:01;9.40;99.90
23405;DHT22;11875;49.356;2.718;2023-04-02T06:45:33;9.40;99.90
23405;DHT22;11875;49.356;2.718;2023-04-02T06:48:03;9.40;99.90
23405;DHT22;11875;49.356;2.718;2023-04-02T06:50:42;9.60;99.90
23405;DHT22;11875;49.356;2.718;2023-04-02T06:53:24;9.40;99.90
23405;DHT22;11875;49.356;2.718;2023-04-02T06:56:00;9.50;99.90
23405;DHT22;11875;49.356;2.718;2023-04-02T06:58:27;9.60;99.90
23405;DHT22;11875;49.356;2.718;2023-04-02T07:00:53;9.70;99.90
23405;DHT22;11875;49.356;2.718;2023-04-02T07:03:26;9.70;99.90
23405;DHT22;11875;49.356;2.718;2023-04-02T07:05:52;9.70;99.90
23405;DHT22;11875;49.356;2.718;2023-04-02T07:08:18;9.70;99.90
23405;DHT22;11875;49.356;2.718;2023-04-02T07:10:44;9.70;99.90
23405;DHT22;11875;49.356;2.718;2023-04-02T07:13:18;9.80;99.90
23405;DHT22;11875;49.356;2.718;2023-04-02T07:15:46;9.70;99.90
23405;DHT22;11875;49.356;2.718;2023-04-02T07:18:28;9.50;99.90
23405;DHT22;11875;49.356;2.718;2023-04-02T07:20:54;9.50;99.90
23405;DHT22;11875;49.356;2.718;2023-04-02T07:23:20;9.70;99.90
23405;DHT22;11875;49.356;2.718;2023-04-02T07:25:50;9.40;99.90
23405;DHT22;11875;49.356;2.718;2023-04-02T07:28:16;9.40;99.90
23405;DHT22;11875;49.356;2.718;2023-04-02T07:30:43;9.40;99.90
23405;DHT22;11875;49.356;2.718;2023-04-02T07:33:21;9.60;99.90
23405;DHT22;11875;49.356;2.718;2023-04-02T07:35:48;10.40;99.90
23405;DHT22;11875;49.356;2.718;2023-04-02T07:38:14;9.60;99.90
23405;DHT22;11875;49.356;2.718;2023-04-02T07:40:39;9.50;99.90
23405;DHT22;11875;49.356;2.718;2023-04-02T07:43:06;9.60;99.90
23405;DHT22;11875;49.356;2.718;2023-04-02T07:45:31;9.60;99.90
23405;DHT22;11875;49.356;2.718;2023-04-02T07:48:03;9.70;99.90
23405;DHT22;11875;49.356;2.718;2023-04-02T07:50:28;9.60;99.90
23405;DHT22;11875;49.356;2.718;2023-04-02T07:52:54;9.60;99.90
23405;DHT22;11875;49.356;2.718;2023-04-02T07:55:20;9.60;99.90
23405;DHT22;11875;49.356;2.718;2023-04-02T07:57:51;9.70;99.90
23405;DHT22;11875;49.356;2.718;2023-04-02T08:00:18;9.70;99.90
23405;DHT22;11875;49.356;2.718;2023-04-02T08:02:45;9.60;99.90
23405;DHT22;11875;49.356;2.718;2023-04-02T08:05:11;9.60;99.90
23405;DHT22;11875;49.356;2.718;2023-04-02T08:07:37;9.60;99.90
23405;DHT22;11875;49.356;2.718;2023-04-02T08:10:09;9.60;99.90
23405;DHT22;11875;49.356;2.718;2023-04-02T08:12:35;9.40;99.90
23405;DHT22;11875;49.356;2.718;2023-04-02T08:15:01;9.40;99.90
23405;DHT22;11875;49.356;2.718;2023-04-02T08:17:28;9.40;99.90
23405;DHT22;11875;49.356;2.718;2023-04-02T08:19:56;9.40;99.90
23405;DHT22;11875;49.356;2.718;2023-04-02T08:22:28;9.40;99.90
23405;DHT22;11875;49.356;2.718;2023-04-02T08:24:54;9.40;99.90
23405;DHT22;11875;49.356;2.718;2023-04-02T08:27:21;9.80;99.90
23405;DHT22;11875;49.356;2.718;2023-04-02T08:29:47;9.30;99.90
23405;DHT22;11875;49.356;2.718;2023-04-02T08:32:14;9.30;99.90
23405;DHT22;11875;49.356;2.718;2023-04-02T08:34:41;9.20;99.90
23405;DHT22;11875;49.356;2.718;2023-04-02T08:37:10;9.20;99.90
23405;DHT22;11875;49.356;2.718;2023-04-02T08:39:36;9.50;99.90
23405;DHT22;11875;49.356;2.718;2023-04-02T08:44:46;9.30;99.90
23405;DHT22;11875;49.356;2.718;2023-04-02T08:47:17;9.30;99.90
23405;DHT22;11875;49.356;2.718;2023-04-02T08:49:53;9.30;99.90
23405;DHT22;11875;49.356;2.718;2023-04-02T08:52:30;9.40;99.90
23405;DHT22;11875;49.356;2.718;2023-04-02T08:54:56;9.40;99.90
23405;DHT22;11875;49.356;2.718;2023-04-02T08:57:47;10.20;99.90
23405;DHT22;11875;49.356;2.718;2023-04-02T09:00:35;9.50;99.90
23405;DHT22;11875;49.356;2.718;2023-04-02T09:05:38;9.50;99.90
23405;DHT22;11875;49.356;2.718;2023-04-02T09:08:04;9.50;99.90
23405;DHT22;11875;49.356;2.718;2023-04-02T09:10:44;9.40;99.90
23405;DHT22;11875;49.356;2.718;2023-04-02T09:13:27;9.50;99.90
23405;DHT22;11875;49.356;2.718;2023-04-02T09:16:23;9.50;99.90
23405;DHT22;11875;49.356;2.718;2023-04-02T09:18:55;9.40;99.90
23405;DHT22;11875;49.356;2.718;2023-04-02T09:23:48;9.80;99.90
23405;DHT22;11875;49.356;2.718;2023-04-02T09:26:25;9.70;99.90
23405;DHT22;11875;49.356;2.718;2023-04-02T09:29:35;9.70;99.90
23405;DHT22;11875;49.356;2.718;2023-04-02T09:31:56;9.70;99.90
23405;DHT22;11875;49.356;2.718;2023-04-02T09:34:32;9.70;99.90
23405;DHT22;11875;49.356;2.718;2023-04-02T09:37:13;9.80;99.90
23405;DHT22;11875;49.356;2.718;2023-04-02T09:39:39;9.90;99.90
23405;DHT22;11875;49.356;2.718;2023-04-02T09:42:07;9.90;99.90
23405;DHT22;11875;49.356;2.718;2023-04-02T09:44:33;9.80;99.90
23405;DHT22;11875;49.356;2.718;2023-04-02T09:47:05;9.80;99.90
23405;DHT22;11875;49.356;2.718;2023-04-02T09:49:36;9.70;99.90
23405;DHT22;11875;49.356;2.718;2023-04-02T09:52:25;9.70;99.90
23405;DHT22;11875;49.356;2.718;2023-04-02T09:55:28;9.60;99.90
23405;DHT22;11875;49.356;2.718;2023-04-02T09:58:11;9.70;99.90
23405;DHT22;11875;49.356;2.718;2023-04-02T10:00:38;9.60;99.90
23405;DHT22;11875;49.356;2.718;2023-04-02T10:03:30;9.60;99.90
23405;DHT22;11875;49.356;2.718;2023-04-02T10:06:13;9.60;99.90
23405;DHT22;11875;49.356;2.718;2023-04-02T10:08:41;9.50;99.90
23405;DHT22;11875;49.356;2.718;2023-04-02T10:11:11;9.60;99.90
23405;DHT22;11875;49.356;2.718;2023-04-02T10:14:02;9.60;99.90
23405;DHT22;11875;49.356;2.718;2023-04-02T10:16:40;9.70;99.90
23405;DHT22;11875;49.356;2.718;2023-04-02T10:21:54;9.60;99.90
23405;DHT22;11875;49.356;2.718;2023-04-02T10:24:20;9.60;99.90
23405;DHT22;11875;49.356;2.718;2023-04-02T10:32:20;9.70;99.90
23405;DHT22;11875;49.356;2.718;2023-04-02T10:45:41;9.60;99.90
23405;DHT22;11875;49.356;2.718;2023-04-02T10:48:43;9.60;99.90
23405;DHT22;11875;49.356;2.718;2023-04-02T10:56:51;9.70;99.90
23405;DHT22;11875;49.356;2.718;2023-04-02T11:01:45;9.80;99.90
23405;DHT22;11875;49.356;2.718;2023-04-02T11:04:40;9.80;99.90
23405;DHT22;11875;49.356;2.718;2023-04-02T11:07:13;9.80;99.90
23405;DHT22;11875;49.356;2.718;2023-04-02T11:09:44;9.80;99.90
23405;DHT22;11875;49.356;2.718;2023-04-02T11:14:48;9.80;99.90
23405;DHT22;11875;49.356;2.718;2023-04-02T11:17:14;9.90;99.90
23405;DHT22;11875;49.356;2.718;2023-04-02T11:19:41;10.10;99.90
23405;DHT22;11875;49.356;2.718;2023-04-02T11:22:21;10.20;99.90
23405;DHT22;11875;49.356;2.718;2023-04-02T11:24:55;10.20;99.90
23405;DHT22;11875;49.356;2.718;2023-04-02T11:27:31;10.30;99.90
23405;DHT22;11875;49.356;2.718;2023-04-02T11:32:49;10.20;99.90
23405;DHT22;11875;49.356;2.718;2023-04-02T11:37:59;10.00;99.90
23405;DHT22;11875;49.356;2.718;2023-04-02T11:40:46;10.00;99.90
23405;DHT22;11875;49.356;2.718;2023-04-02T11:46:03;9.90;99.90
23405;DHT22;11875;49.356;2.718;2023-04-02T11:48:31;9.80;99.90
23405;DHT22;11875;49.356;2.718;2023-04-02T11:51:00;9.80;99.90
23405;DHT22;11875;49.356;2.718;2023-04-02T11:53:34;9.60;99.90
23405;DHT22;11875;49.356;2.718;2023-04-02T11:56:20;9.70;99.90
23405;DHT22;11875;49.356;2.718;2023-04-02T11:59:18;9.60;99.90
23405;DHT22;11875;49.356;2.718;2023-04-02T12:04:52;9.70;99.90
23405;DHT22;11875;49.356;2.718;2023-04-02T12:10:18;9.90;99.90
23405;DHT22;11875;49.356;2.718;2023-04-02T12:12:44;9.90;99.90
23405;DHT22;11875;49.356;2.718;2023-04-02T12:18:10;10.30;99.90
23405;DHT22;11875;49.356;2.718;2023-04-02T12:20:37;10.00;99.90
23405;DHT22;11875;49.356;2.718;2023-04-02T12:23:03;9.20;99.90
23405;DHT22;11875;49.356;2.718;2023-04-02T12:25:34;9.90;99.90
23405;DHT22;11875;49.356;2.718;2023-04-02T12:30:37;9.90;99.90
23405;DHT22;11875;49.356;2.718;2023-04-02T12:33:27;9.90;99.90
23405;DHT22;11875;49.356;2.718;2023-04-02T12:35:57;9.80;99.90
23405;DHT22;11875;49.356;2.718;2023-04-02T12:38:26;9.90;99.90
23405;DHT22;11875;49.356;2.718;2023-04-02T12:40:54;10.00;99.90
23405;DHT22;11875;49.356;2.718;2023-04-02T12:43:28;10.00;99.90
23405;DHT22;11875;49.356;2.718;2023-04-02T12:46:02;10.10;99.90
23405;DHT22;11875;49.356;2.718;2023-04-02T12:48:29;9.90;99.90
23405;DHT22;11875;49.356;2.718;2023-04-02T12:50:56;9.90;99.90
23405;DHT22;11875;49.356;2.718;2023-04-02T12:53:28;9.90;99.90
23405;DHT22;11875;49.356;2.718;2023-04-02T12:55:55;9.90;99.90
23405;DHT22;11875;49.356;2.718;2023-04-02T13:01:20;9.80;99.90
23405;DHT22;11875;49.356;2.718;2023-04-02T13:04:09;9.90;99.90
23405;DHT22;11875;49.356;2.718;2023-04-02T13:06:37;9.90;99.90
23405;DHT22;11875;49.356;2.718;2023-04-02T13:09:05;9.90;99.90
23405;DHT22;11875;49.356;2.718;2023-04-02T13:11:38;9.90;99.90
23405;DHT22;11875;49.356;2.718;2023-04-02T13:14:07;9.80;99.90
23405;DHT22;11875;49.356;2.718;2023-04-02T13:16:36;9.80;99.90
23405;DHT22;11875;49.356;2.718;2023-04-02T13:21:42;9.70;99.90
23405;DHT22;11875;49.356;2.718;2023-04-02T13:24:21;9.80;99.90
23405;DHT22;11875;49.356;2.718;2023-04-02T13:26:48;9.90;99.90
23405;DHT22;11875;49.356;2.718;2023-04-02T13:29:29;9.90;99.90
23405;DHT22;11875;49.356;2.718;2023-04-02T13:32:09;9.90;99.90
23405;DHT22;11875;49.356;2.718;2023-04-02T13:34:36;10.00;99.90
23405;DHT22;11875;49.356;2.718;2023-04-02T13:37:01;10.00;99.90
23405;DHT22;11875;49.356;2.718;2023-04-02T13:39:27;10.00;99.90
23405;DHT22;11875;49.356;2.718;2023-04-02T13:42:01;10.00;99.90
23405;DHT22;11875;49.356;2.718;2023-04-02T13:44:29;10.00;99.90
23405;DHT22;11875;49.356;2.718;2023-04-02T13:46:56;10.00;99.90
23405;DHT22;11875;49.356;2.718;2023-04-02T13:49:23;10.00;99.90
23405;DHT22;11875;49.356;2.718;2023-04-02T13:51:51;9.80;99.90
23405;DHT22;11875;49.356;2.718;2023-04-02T13:54:44;9.80;99.90
23405;DHT22;11875;49.356;2.718;2023-04-02T13:57:13;9.70;99.90
23405;DHT22;11875;49.356;2.718;2023-04-02T13:59:39;9.70;99.90
23405;DHT22;11875;49.356;2.718;2023-04-02T14:02:20;9.60;99.90
23405;DHT22;11875;49.356;2.718;2023-04-02T14:04:50;9.70;99.90
23405;DHT22;11875;49.356;2.718;2023-04-02T14:21:01;10.20;99.90
23405;DHT22;11875;49.356;2.718;2023-04-02T14:23:49;9.90;99.90
23405;DHT22;11875;49.356;2.718;2023-04-02T14:29:04;9.90;99.90
23405;DHT22;11875;49.356;2.718;2023-04-02T14:31:38;10.20;99.90
23405;DHT22;11875;49.356;2.718;2023-04-02T14:34:13;10.00;99.90
23405;DHT22;11875;49.356;2.718;2023-04-02T14:37:05;9.90;99.90
23405;DHT22;11875;49.356;2.718;2023-04-02T14:42:30;9.80;99.90
23405;DHT22;11875;49.356;2.718;2023-04-02T14:45:10;9.80;99.90
23405;DHT22;11875;49.356;2.718;2023-04-02T14:47:44;9.70;99.90
23405;DHT22;11875;49.356;2.718;2023-04-02T14:50:26;9.70;99.90
23405;DHT22;11875;49.356;2.718;2023-04-02T14:52:57;9.80;99.90
23405;DHT22;11875;49.356;2.718;2023-04-02T14:55:54;9.70;99.90
23405;DHT22;11875;49.356;2.718;2023-04-02T14:58:25;9.60;99.90
23405;DHT22;11875;49.356;2.718;2023-04-02T15:01:30;9.60;99.90
23405;DHT22;11875;49.356;2.718;2023-04-02T15:04:11;9.60;99.90
23405;DHT22;11875;49.356;2.718;2023-04-02T15:06:46;9.70;99.90
23405;DHT22;11875;49.356;2.718;2023-04-02T15:09:36;9.70;99.90
23405;DHT22;11875;49.356;2.718;2023-04-02T15:12:09;9.60;99.90
23405;DHT22;11875;49.356;2.718;2023-04-02T15:14:41;9.50;99.90
23405;DHT22;11875;49.356;2.718;2023-04-02T15:17:11;10.10;99.90
23405;DHT22;11875;49.356;2.718;2023-04-02T15:19:37;9.50;99.90
23405;DHT22;11875;49.356;2.718;2023-04-02T15:22:22;9.70;99.90
23405;DHT22;11875;49.356;2.718;2023-04-02T15:27:59;9.90;99.90
23405;DHT22;11875;49.356;2.718;2023-04-02T15:30:29;9.80;99.90
23405;DHT22;11875;49.356;2.718;2023-04-02T15:38:29;9.70;99.90
23405;DHT22;11875;49.356;2.718;2023-04-02T15:41:14;9.70;99.90
23405;DHT22;11875;49.356;2.718;2023-04-02T15:52:17;9.70;99.90
23405;DHT22;11875;49.356;2.718;2023-04-02T15:54:53;9.70;99.90
23405;DHT22;11875;49.356;2.718;2023-04-02T15:57:43;9.80;99.90
23405;DHT22;11875;49.356;2.718;2023-04-02T16:00:26;9.80;99.90
23405;DHT22;11875;49.356;2.718;2023-04-02T16:03:55;9.80;99.90
23405;DHT22;11875;49.356;2.718;2023-04-02T16:11:31;9.60;99.90
23405;DHT22;11875;49.356;2.718;2023-04-02T16:14:46;9.60;99.90
23405;DHT22;11875;49.356;2.718;2023-04-02T16:16:49;9.60;99.90
23405;DHT22;11875;49.356;2.718;2023-04-02T16:19:37;9.60;99.90
23405;DHT22;11875;49.356;2.718;2023-04-02T16:24:40;9.90;99.90
23405;DHT22;11875;49.356;2.718;2023-04-02T16:30:23;9.60;99.90
23405;DHT22;11875;49.356;2.718;2023-04-02T16:33:30;9.60;99.90
23405;DHT22;11875;49.356;2.718;2023-04-02T16:44:20;9.50;99.90
23405;DHT22;11875;49.356;2.718;2023-04-02T16:47:13;9.50;99.90
23405;DHT22;11875;49.356;2.718;2023-04-02T16:49:56;9.50;99.90
23405;DHT22;11875;49.356;2.718;2023-04-02T16:53:20;9.30;99.90
23405;DHT22;11875;49.356;2.718;2023-04-02T16:55:33;9.20;99.90
23405;DHT22;11875;49.356;2.718;2023-04-02T17:00:59;9.30;99.90
23405;DHT22;11875;49.356;2.718;2023-04-02T17:06:02;9.40;99.90
23405;DHT22;11875;49.356;2.718;2023-04-02T17:08:42;9.30;99.90
23405;DHT22;11875;49.356;2.718;2023-04-02T17:11:11;9.30;99.90
23405;DHT22;11875;49.356;2.718;2023-04-02T17:13:41;9.40;99.90
23405;DHT22;11875;49.356;2.718;2023-04-02T17:16:28;9.30;99.90
23405;DHT22;11875;49.356;2.718;2023-04-02T17:18:56;9.20;99.90
23405;DHT22;11875;49.356;2.718;2023-04-02T17:21:27;9.20;99.90
23405;DHT22;11875;49.356;2.718;2023-04-02T17:24:01;9.10;99.90
23405;DHT22;11875;49.356;2.718;2023-04-02T17:26:32;9.10;99.90
23405;DHT22;11875;49.356;2.718;2023-04-02T17:29:02;9.10;99.90
23405;DHT22;11875;49.356;2.718;2023-04-02T17:31:31;9.10;99.90
23405;DHT22;11875;49.356;2.718;2023-04-02T17:34:13;9.00;99.90
23405;DHT22;11875;49.356;2.718;2023-04-02T17:58:28;9.00;99.90
23405;DHT22;11875;49.356;2.718;2023-04-02T18:01:04;9.00;99.90
23405;DHT22;11875;49.356;2.718;2023-04-02T18:08:55;9.00;99.90
23405;DHT22;11875;49.356;2.718;2023-04-02T18:17:20;9.00;99.90
23405;DHT22;11875;49.356;2.718;2023-04-02T18:19:49;9.10;99.90
23405;DHT22;11875;49.356;2.718;2023-04-02T18:30:57;9.30;99.90
23405;DHT22;11875;49.356;2.718;2023-04-02T18:36:48;9.20;99.90
23405;DHT22;11875;49.356;2.718;2023-04-02T18:52:07;9.10;99.90
23405;DHT22;11875;49.356;2.718;2023-04-02T18:57:23;9.70;99.90
23405;DHT22;11875;49.356;2.718;2023-04-02T19:00:04;9.00;99.90
23405;DHT22;11875;49.356;2.718;2023-04-02T19:02:48;9.60;99.90
23405;DHT22;11875;49.356;2.718;2023-04-02T19:05:22;9.00;99.90
23405;DHT22;11875;49.356;2.718;2023-04-02T19:07:56;9.00;99.90
23405;DHT22;11875;49.356;2.718;2023-04-02T19:10:32;9.00;99.90
23405;DHT22;11875;49.356;2.718;2023-04-02T19:12:58;9.10;99.90
23405;DHT22;11875;49.356;2.718;2023-04-02T19:15:37;9.10;99.90
23405;DHT22;11875;49.356;2.718;2023-04-02T19:20:57;9.20;99.90
23405;DHT22;11875;49.356;2.718;2023-04-02T19:26:17;9.20;99.90
23405;DHT22;11875;49.356;2.718;2023-04-02T19:29:00;9.10;99.90
23405;DHT22;11875;49.356;2.718;2023-04-02T19:34:54;8.80;99.90
23405;DHT22;11875;49.356;2.718;2023-04-02T19:42:24;8.70;99.90
23405;DHT22;11875;49.356;2.718;2023-04-02T19:44:53;8.70;99.90
23405;DHT22;11875;49.356;2.718;2023-04-02T19:47:19;8.60;99.90
23405;DHT22;11875;49.356;2.718;2023-04-02T19:49:45;8.50;99.90
23405;DHT22;11875;49.356;2.718;2023-04-02T19:52:11;8.50;99.90
23405;DHT22;11875;49.356;2.718;2023-04-02T19:54:37;8.50;99.90
23405;DHT22;11875;49.356;2.718;2023-04-02T19:57:03;8.40;99.90
23405;DHT22;11875;49.356;2.718;2023-04-02T19:59:29;8.40;99.90
23405;DHT22;11875;49.356;2.718;2023-04-02T20:01:54;8.60;99.90
23405;DHT22;11875;49.356;2.718;2023-04-02T20:04:20;8.20;99.90
23405;DHT22;11875;49.356;2.718;2023-04-02T20:06:45;8.30;99.90
23405;DHT22;11875;49.356;2.718;2023-04-02T20:09:11;8.40;99.90
23405;DHT22;11875;49.356;2.718;2023-04-02T20:11:37;8.40;99.90
23405;DHT22;11875;49.356;2.718;2023-04-02T20:14:04;8.40;99.90
23405;DHT22;11875;49.356;2.718;2023-04-02T20:16:30;8.40;99.90
23405;DHT22;11875;49.356;2.718;2023-04-02T20:18:57;8.30;99.90
23405;DHT22;11875;49.356;2.718;2023-04-02T20:21:22;8.50;99.90
23405;DHT22;11875;49.356;2.718;2023-04-02T20:23:52;8.70;99.90
23405;DHT22;11875;49.356;2.718;2023-04-02T20:26:18;8.50;99.90
23405;DHT22;11875;49.356;2.718;2023-04-02T20:28:43;8.50;99.90
23405;DHT22;11875;49.356;2.718;2023-04-02T20:31:15;8.90;99.90
23405;DHT22;11875;49.356;2.718;2023-04-02T20:33:41;8.50;99.90
23405;DHT22;11875;49.356;2.718;2023-04-02T20:36:10;9.50;99.90
23405;DHT22;11875;49.356;2.718;2023-04-02T20:38:37;8.60;99.90
23405;DHT22;11875;49.356;2.718;2023-04-02T20:41:04;8.90;99.90
23405;DHT22;11875;49.356;2.718;2023-04-02T20:43:30;8.60;99.90
23405;DHT22;11875;49.356;2.718;2023-04-02T20:45:58;8.60;99.90